Time,TemperatureF,DewpointF,PressureIn,WindDirection,WindDirectionDegrees,WindSpeedMPH,WindSpeedGustMPH,Humidity,HourlyPrecipIn,Conditions,Clouds,dailyrainin,SoftwareType,DateUTC
2013-05-02 00:13:00,55.3,37.0,30.46,WNW,289,5.0,7.0,51,0.00,,,0.00,weatherlink.com 1.10,2013-05-02 04:13:00,
2013-05-02 00:28:00,54.9,39.0,30.46,WNW,299,4.0,4.0,55,0.00,,,0.00,weatherlink.com 1.10,2013-05-02 04:28:00,
2013-05-02 00:43:00,54.7,40.0,30.46,WNW,299,0.0,5.0,58,0.00,,,0.00,weatherlink.com 1.10,2013-05-02 04:43:00,
2013-05-02 00:58:00,54.4,41.0,30.46,WNW,299,1.0,6.0,61,0.00,,,0.00,weatherlink.com 1.10,2013-05-02 04:58:00,
2013-05-02 01:13:00,54.2,41.0,30.45,WNW,299,0.0,4.0,62,0.00,,,0.00,weatherlink.com 1.10,2013-05-02 05:13:00,
2013-05-02 01:28:00,53.5,41.0,30.45,WNW,299,3.0,6.0,64,0.00,,,0.00,weatherlink.com 1.10,2013-05-02 05:28:00,
2013-05-02 01:43:00,52.8,42.0,30.44,WNW,299,2.0,5.0,67,0.00,,,0.00,weatherlink.com 1.10,2013-05-02 05:43:00,
2013-05-02 01:58:00,52.3,42.0,30.44,WNW,299,0.0,3.0,69,0.00,,,0.00,weatherlink.com 1.10,2013-05-02 05:58:00,
2013-05-02 02:13:00,52.4,43.0,30.44,WNW,299,0.0,5.0,70,0.00,,,0.00,weatherlink.com 1.10,2013-05-02 06:13:00,
2013-05-02 02:28:00,52.6,43.0,30.44,WNW,299,4.0,5.0,70,0.00,,,0.00,weatherlink.com 1.10,2013-05-02 06:28:00,
2013-05-02 02:43:00,52.3,43.0,30.44,WNW,299,1.0,3.0,71,0.00,,,0.00,weatherlink.com 1.10,2013-05-02 06:43:00,
2013-05-02 02:58:00,52.2,43.0,30.44,WNW,299,2.0,4.0,72,0.00,,,0.00,weatherlink.com 1.10,2013-05-02 06:58:00,
2013-05-02 03:13:00,52.0,43.0,30.44,WNW,299,2.0,4.0,72,0.00,,,0.00,weatherlink.com 1.10,2013-05-02 07:13:00,
2013-05-02 03:28:00,51.8,43.0,30.44,WNW,299,0.0,4.0,73,0.00,,,0.00,weatherlink.com 1.10,2013-05-02 07:28:00,
2013-05-02 03:43:00,51.7,43.0,30.44,WNW,299,0.0,4.0,73,0.00,,,0.00,weatherlink.com 1.10,2013-05-02 07:43:00,
2013-05-02 03:58:00,51.4,43.0,30.44,WNW,299,3.0,3.0,74,0.00,,,0.00,weatherlink.com 1.10,2013-05-02 07:58:00,
2013-05-02 04:13:00,51.2,43.0,30.44,WNW,299,0.0,2.0,74,0.00,,,0.00,weatherlink.com 1.10,2013-05-02 08:13:00,
2013-05-02 04:28:00,50.9,43.0,30.43,WNW,299,0.0,3.0,75,0.00,,,0.00,weatherlink.com 1.10,2013-05-02 08:28:00,
2013-05-02 04:43:00,50.6,43.0,30.43,WNW,299,0.0,0.0,76,0.00,,,0.00,weatherlink.com 1.10,2013-05-02 08:43:00,
2013-05-02 04:58:00,50.3,43.0,30.44,WNW,299,0.0,0.0,77,0.00,,,0.00,weatherlink.com 1.10,2013-05-02 08:58:00,
2013-05-02 05:13:00,50.3,44.0,30.44,WNW,299,0.0,4.0,78,0.00,,,0.00,weatherlink.com 1.10,2013-05-02 09:13:00,
2013-05-02 05:28:00,50.2,44.0,30.43,WNW,299,4.0,4.0,78,0.00,,,0.00,weatherlink.com 1.10,2013-05-02 09:28:00,
2013-05-02 05:43:00,49.9,44.0,30.43,WNW,299,2.0,5.0,79,0.00,,,0.00,weatherlink.com 1.10,2013-05-02 09:43:00,
2013-05-02 05:58:00,49.7,44.0,30.44,WNW,299,3.0,3.0,80,0.00,,,0.00,weatherlink.com 1.10,2013-05-02 09:58:00,
2013-05-02 06:13:00,49.9,44.0,30.44,WNW,299,3.0,6.0,80,0.00,,,0.00,weatherlink.com 1.10,2013-05-02 10:13:00,
2013-05-02 06:28:00,50.6,44.0,30.44,WNW,299,3.0,5.0,78,0.00,,,0.00,weatherlink.com 1.10,2013-05-02 10:28:00,
2013-05-02 06:43:00,51.2,44.0,30.44,WNW,299,4.0,5.0,77,0.00,,,0.00,weatherlink.com 1.10,2013-05-02 10:43:00,
2013-05-02 06:58:00,52.0,44.0,30.44,WNW,299,2.0,4.0,75,0.00,,,0.00,weatherlink.com 1.10,2013-05-02 10:58:00,
2013-05-02 07:13:00,52.6,45.0,30.45,WNW,299,1.0,4.0,74,0.00,,,0.00,weatherlink.com 1.10,2013-05-02 11:13:00,
2013-05-02 07:28:00,53.5,45.0,30.45,WNW,299,5.0,5.0,72,0.00,,,0.00,weatherlink.com 1.10,2013-05-02 11:28:00,
2013-05-02 07:43:00,54.2,45.0,30.45,WNW,299,4.0,6.0,71,0.00,,,0.00,weatherlink.com 1.10,2013-05-02 11:43:00,
2013-05-02 07:58:00,55.7,45.0,30.45,WNW,299,3.0,4.0,68,0.00,,,0.00,weatherlink.com 1.10,2013-05-02 11:58:00,
2013-05-02 08:13:00,57.1,45.0,30.45,WNW,299,1.0,3.0,64,0.00,,,0.00,weatherlink.com 1.10,2013-05-02 12:13:00,
2013-05-02 08:28:00,58.2,45.0,30.45,NW,305,2.0,4.0,62,0.00,,,0.00,weatherlink.com 1.10,2013-05-02 12:28:00,
2013-05-02 08:43:00,59.5,45.0,30.45,NW,315,2.0,5.0,59,0.00,,,0.00,weatherlink.com 1.10,2013-05-02 12:43:00,
2013-05-02 08:58:00,60.7,45.0,30.45,NW,315,4.0,5.0,56,0.00,,,0.00,weatherlink.com 1.10,2013-05-02 12:58:00,
2013-05-02 09:14:00,62.0,45.0,30.44,NW,315,0.0,5.0,54,0.00,,,0.00,weatherlink.com 1.10,2013-05-02 13:14:00,
2013-05-02 09:29:00,65.4,45.0,30.44,NNW,328,0.0,2.0,48,0.00,,,0.00,weatherlink.com 1.10,2013-05-02 13:29:00,
2013-05-02 09:44:00,65.8,45.0,30.44,NNW,328,0.0,4.0,47,0.00,,,0.00,weatherlink.com 1.10,2013-05-02 13:44:00,
2013-05-02 09:59:00,67.8,46.0,30.44,NNW,334,2.0,4.0,45,0.00,,,0.00,weatherlink.com 1.10,2013-05-02 13:59:00,
2013-05-02 10:14:00,69.6,45.0,30.44,NNW,327,0.0,4.0,42,0.00,,,0.00,weatherlink.com 1.10,2013-05-02 14:14:00,
2013-05-02 10:29:00,70.6,45.0,30.43,NNE,32,0.0,4.0,40,0.00,,,0.00,weatherlink.com 1.10,2013-05-02 14:29:00,
2013-05-02 10:44:00,71.7,44.0,30.43,NNE,33,0.0,3.0,37,0.00,,,0.00,weatherlink.com 1.10,2013-05-02 14:44:00,
2013-05-02 10:59:00,71.5,45.0,30.42,SE,124,4.0,7.0,39,0.00,,,0.00,weatherlink.com 1.10,2013-05-02 14:59:00,
2013-05-02 11:14:00,71.5,45.0,30.42,SE,128,4.0,6.0,39,0.00,,,0.00,weatherlink.com 1.10,2013-05-02 15:14:00,
2013-05-02 11:44:00,72.8,44.0,30.41,SSE,157,3.0,8.0,36,0.00,,,0.00,weatherlink.com 1.10,2013-05-02 15:44:00,
2013-05-02 11:59:00,74.1,42.0,30.41,SSE,156,0.0,4.0,32,0.00,,,0.00,weatherlink.com 1.10,2013-05-02 15:59:00,
2013-05-02 12:14:00,74.2,38.0,30.40,SSE,153,1.0,8.0,27,0.00,,,0.00,weatherlink.com 1.10,2013-05-02 16:14:00,
2013-05-02 12:29:00,73.9,37.0,30.40,South,174,0.0,7.0,26,0.00,,,0.00,weatherlink.com 1.10,2013-05-02 16:29:00,
2013-05-02 12:44:00,74.3,37.0,30.39,SE,140,2.0,8.0,26,0.00,,,0.00,weatherlink.com 1.10,2013-05-02 16:44:00,
2013-05-02 12:59:00,73.7,39.0,30.39,SE,144,4.0,9.0,28,0.00,,,0.00,weatherlink.com 1.10,2013-05-02 16:59:00,
2013-05-02 13:14:00,74.1,37.0,30.39,SSE,153,5.0,9.0,26,0.00,,,0.00,weatherlink.com 1.10,2013-05-02 17:14:00,
2013-05-02 13:29:00,74.2,37.0,30.39,SSE,148,2.0,11.0,26,0.00,,,0.00,weatherlink.com 1.10,2013-05-02 17:29:00,
2013-05-02 13:44:00,73.5,36.0,30.39,SE,138,4.0,12.0,25,0.00,,,0.00,weatherlink.com 1.10,2013-05-02 17:44:00,
2013-05-02 13:59:00,73.2,39.0,30.39,SE,138,4.0,13.0,29,0.00,,,0.00,weatherlink.com 1.10,2013-05-02 17:59:00,
2013-05-02 14:14:00,72.8,40.0,30.39,SE,146,2.0,14.0,30,0.00,,,0.00,weatherlink.com 1.10,2013-05-02 18:14:00,
2013-05-02 14:29:00,71.4,38.0,30.39,SE,144,4.0,14.0,30,0.00,,,0.00,weatherlink.com 1.10,2013-05-02 18:29:00,
2013-05-02 14:44:00,70.6,38.0,30.39,SSE,161,0.0,13.0,30,0.00,,,0.00,weatherlink.com 1.10,2013-05-02 18:44:00,
2013-05-02 14:59:00,70.0,36.0,30.39,SE,140,15.0,16.0,29,0.00,,,0.00,weatherlink.com 1.10,2013-05-02 18:59:00,
2013-05-02 15:14:00,69.8,39.0,30.39,SE,128,8.0,16.0,32,0.00,,,0.00,weatherlink.com 1.10,2013-05-02 19:14:00,
2013-05-02 15:29:00,62.2,48.0,30.40,SE,134,4.0,24.0,60,0.00,,,0.00,weatherlink.com 1.10,2013-05-02 19:29:00,
2013-05-02 15:44:00,57.8,47.0,30.41,SSE,161,20.0,24.0,67,0.00,,,0.00,weatherlink.com 1.10,2013-05-02 19:44:00,
2013-05-02 15:59:00,56.1,47.0,30.42,ESE,107,10.0,24.0,72,0.00,,,0.00,weatherlink.com 1.10,2013-05-02 19:59:00,
2013-05-02 16:14:00,55.3,47.0,30.42,SE,133,17.0,23.0,74,0.00,,,0.00,weatherlink.com 1.10,2013-05-02 20:14:00,
2013-05-02 16:29:00,55.5,47.0,30.43,SE,143,13.0,19.0,74,0.00,,,0.00,weatherlink.com 1.10,2013-05-02 20:29:00,
2013-05-02 16:44:00,55.1,47.0,30.43,SE,131,11.0,19.0,74,0.00,,,0.00,weatherlink.com 1.10,2013-05-02 20:44:00,
2013-05-02 16:59:00,53.0,46.0,30.43,South,184,6.0,22.0,78,0.00,,,0.00,weatherlink.com 1.10,2013-05-02 20:59:00,
2013-05-02 17:14:00,52.1,46.0,30.44,SE,126,14.0,21.0,81,0.00,,,0.00,weatherlink.com 1.10,2013-05-02 21:14:00,
2013-05-02 17:30:00,51.7,46.0,30.43,SSE,162,5.0,19.0,80,0.00,,,0.00,weatherlink.com 1.10,2013-05-02 21:30:00,
2013-05-02 17:44:00,51.8,46.0,30.44,ESE,123,5.0,15.0,81,0.00,,,0.00,weatherlink.com 1.10,2013-05-02 21:44:00,
2013-05-02 18:00:00,51.9,46.0,30.45,SE,140,12.0,14.0,80,0.00,,,0.00,weatherlink.com 1.10,2013-05-02 22:00:00,
2013-05-02 18:15:00,50.8,45.0,30.45,SE,127,9.0,21.0,80,0.00,,,0.00,weatherlink.com 1.10,2013-05-02 22:15:00,
2013-05-02 18:30:00,50.4,44.0,30.45,ESE,103,5.0,19.0,79,0.00,,,0.00,weatherlink.com 1.10,2013-05-02 22:30:00,
2013-05-02 18:45:00,50.3,44.0,30.46,SE,126,13.0,18.0,78,0.00,,,0.00,weatherlink.com 1.10,2013-05-02 22:45:00,
2013-05-02 19:00:00,50.1,43.0,30.47,SE,145,5.0,21.0,77,0.00,,,0.00,weatherlink.com 1.10,2013-05-02 23:00:00,
2013-05-02 19:15:00,49.9,43.0,30.48,East,80,6.0,21.0,77,0.00,,,0.00,weatherlink.com 1.10,2013-05-02 23:15:00,
2013-05-02 19:30:00,50.0,43.0,30.48,SE,132,10.0,22.0,76,0.00,,,0.00,weatherlink.com 1.10,2013-05-02 23:30:00,
2013-05-02 19:45:00,49.9,42.0,30.49,ESE,121,9.0,15.0,73,0.00,,,0.00,weatherlink.com 1.10,2013-05-02 23:45:00,
2013-05-02 20:00:00,49.7,41.0,30.49,SE,128,5.0,18.0,73,0.00,,,0.00,weatherlink.com 1.10,2013-05-03 00:00:00,
2013-05-02 20:15:00,49.8,42.0,30.49,SE,138,2.0,14.0,75,0.00,,,0.00,weatherlink.com 1.10,2013-05-03 00:15:00,
2013-05-02 20:30:00,49.9,42.0,30.50,SE,139,5.0,13.0,73,0.00,,,0.00,weatherlink.com 1.10,2013-05-03 00:30:00,
2013-05-02 20:45:00,49.9,42.0,30.50,SSE,148,11.0,13.0,74,0.00,,,0.00,weatherlink.com 1.10,2013-05-03 00:45:00,
2013-05-02 21:00:00,49.7,41.0,30.49,SSE,160,5.0,9.0,73,0.00,,,0.00,weatherlink.com 1.10,2013-05-03 01:00:00,
2013-05-02 21:15:00,50.0,42.0,30.49,SSE,167,4.0,6.0,73,0.00,,,0.00,weatherlink.com 1.10,2013-05-03 01:15:00,
2013-05-02 21:30:00,50.4,42.0,30.49,SSE,152,0.0,3.0,73,0.00,,,0.00,weatherlink.com 1.10,2013-05-03 01:30:00,
2013-05-02 21:45:00,50.5,41.0,30.50,SSE,157,0.0,6.0,71,0.00,,,0.00,weatherlink.com 1.10,2013-05-03 01:45:00,
2013-05-02 22:00:00,50.5,42.0,30.50,ESE,117,0.0,5.0,72,0.00,,,0.00,weatherlink.com 1.10,2013-05-03 02:00:00,
2013-05-02 22:15:00,50.0,41.0,30.50,East,97,5.0,10.0,72,0.00,,,0.00,weatherlink.com 1.10,2013-05-03 02:15:00,
2013-05-02 22:30:00,50.3,42.0,30.50,SE,135,0.0,3.0,72,0.00,,,0.00,weatherlink.com 1.10,2013-05-03 02:30:00,
2013-05-02 22:45:00,50.6,41.0,30.50,ESE,107,3.0,7.0,70,0.00,,,0.00,weatherlink.com 1.10,2013-05-03 02:45:00,
2013-05-02 23:00:00,50.3,42.0,30.50,NNE,26,5.0,7.0,72,0.00,,,0.00,weatherlink.com 1.10,2013-05-03 03:00:00,
2013-05-02 23:15:00,49.5,41.0,30.50,NNE,22,5.0,9.0,72,0.00,,,0.00,weatherlink.com 1.10,2013-05-03 03:15:00,
2013-05-02 23:30:00,49.2,41.0,30.50,NNE,29,5.0,10.0,73,0.00,,,0.00,weatherlink.com 1.10,2013-05-03 03:30:00,
2013-05-02 23:45:00,50.0,41.0,30.50,East,100,0.0,6.0,71,0.00,,,0.00,weatherlink.com 1.10,2013-05-03 03:45:00,